sensor_id;sensor_type;location;lat;lon;timestamp;temperature;humidity
612;DHT22;293;53.888;11.464;2023-02-15T00:01:07;3.80;99.90
612;DHT22;293;53.888;11.464;2023-02-15T00:03:34;3.70;99.90
612;DHT22;293;53.888;11.464;2023-02-15T00:06:01;3.70;99.90
612;DHT22;293;53.888;11.464;2023-02-15T00:08:28;3.70;99.90
612;DHT22;293;53.888;11.464;2023-02-15T00:11:04;3.70;99.90
612;DHT22;293;53.888;11.464;2023-02-15T00:13:31;3.70;99.90
612;DHT22;293;53.888;11.464;2023-02-15T00:16:01;3.60;99.90
612;DHT22;293;53.888;11.464;2023-02-15T00:18:30;3.60;99.90
612;DHT22;293;53.888;11.464;2023-02-15T00:20:57;3.60;99.90
612;DHT22;293;53.888;11.464;2023-02-15T00:23:26;3.60;99.90
612;DHT22;293;53.888;11.464;2023-02-15T00:26:02;3.60;99.90
612;DHT22;293;53.888;11.464;2023-02-15T00:28:29;3.60;99.90
612;DHT22;293;53.888;11.464;2023-02-15T00:31:02;3.60;99.90
612;DHT22;293;53.888;11.464;2023-02-15T00:33:31;3.60;99.90
612;DHT22;293;53.888;11.464;2023-02-15T00:35:58;3.60;99.90
612;DHT22;293;53.888;11.464;2023-02-15T00:38:26;3.50;99.90
612;DHT22;293;53.888;11.464;2023-02-15T00:40:53;3.50;99.90
612;DHT22;293;53.888;11.464;2023-02-15T00:43:20;3.50;99.90
612;DHT22;293;53.888;11.464;2023-02-15T00:45:47;3.50;99.90
612;DHT22;293;53.888;11.464;2023-02-15T00:48:14;3.50;99.90
612;DHT22;293;53.888;11.464;2023-02-15T00:50:45;3.50;99.90
612;DHT22;293;53.888;11.464;2023-02-15T00:53:12;3.40;99.90
612;DHT22;293;53.888;11.464;2023-02-15T00:55:39;3.40;99.90
612;DHT22;293;53.888;11.464;2023-02-15T00:58:06;3.30;99.90
612;DHT22;293;53.888;11.464;2023-02-15T01:00:33;3.30;99.90
612;DHT22;293;53.888;11.464;2023-02-15T01:03:00;3.30;99.90
612;DHT22;293;53.888;11.464;2023-02-15T01:05:27;3.20;99.90
612;DHT22;293;53.888;11.464;2023-02-15T01:07:56;3.20;99.90
612;DHT22;293;53.888;11.464;2023-02-15T01:10:23;3.10;99.90
612;DHT22;293;53.888;11.464;2023-02-15T01:12:51;3.10;99.90
612;DHT22;293;53.888;11.464;2023-02-15T01:15:34;3.10;99.90
612;DHT22;293;53.888;11.464;2023-02-15T01:18:02;3.00;99.90
612;DHT22;293;53.888;11.464;2023-02-15T01:20:29;3.00;99.90
612;DHT22;293;53.888;11.464;2023-02-15T01:22:58;3.00;99.90
612;DHT22;293;53.888;11.464;2023-02-15T01:25:25;2.90;99.90
612;DHT22;293;53.888;11.464;2023-02-15T01:27:51;2.90;99.90
612;DHT22;293;53.888;11.464;2023-02-15T01:30:19;2.90;99.90
612;DHT22;293;53.888;11.464;2023-02-15T01:32:46;2.90;99.90
612;DHT22;293;53.888;11.464;2023-02-15T01:35:12;2.90;99.90
612;DHT22;293;53.888;11.464;2023-02-15T01:37:39;2.90;99.90
612;DHT22;293;53.888;11.464;2023-02-15T01:40:13;3.20;99.90
612;DHT22;293;53.888;11.464;2023-02-15T01:42:40;3.00;99.90
612;DHT22;293;53.888;11.464;2023-02-15T01:45:19;3.00;99.90
612;DHT22;293;53.888;11.464;2023-02-15T01:47:49;2.90;99.90
612;DHT22;293;53.888;11.464;2023-02-15T01:50:22;2.80;99.90
612;DHT22;293;53.888;11.464;2023-02-15T01:52:52;2.90;99.90
612;DHT22;293;53.888;11.464;2023-02-15T01:55:24;2.90;99.90
612;DHT22;293;53.888;11.464;2023-02-15T01:57:52;2.90;99.90
612;DHT22;293;53.888;11.464;2023-02-15T02:00:19;2.90;99.90
612;DHT22;293;53.888;11.464;2023-02-15T02:03:22;2.90;99.90
612;DHT22;293;53.888;11.464;2023-02-15T02:09:12;2.90;99.90
612;DHT22;293;53.888;11.464;2023-02-15T02:11:41;2.90;99.90
612;DHT22;293;53.888;11.464;2023-02-15T02:14:11;2.90;99.90
612;DHT22;293;53.888;11.464;2023-02-15T02:16:44;2.90;99.90
612;DHT22;293;53.888;11.464;2023-02-15T02:19:53;2.90;99.90
612;DHT22;293;53.888;11.464;2023-02-15T02:22:54;2.90;99.90
612;DHT22;293;53.888;11.464;2023-02-15T02:25:49;2.90;99.90
612;DHT22;293;53.888;11.464;2023-02-15T02:28:43;2.90;99.90
612;DHT22;293;53.888;11.464;2023-02-15T02:31:28;2.90;99.90
612;DHT22;293;53.888;11.464;2023-02-15T02:34:40;2.90;99.90
612;DHT22;293;53.888;11.464;2023-02-15T02:37:18;2.90;99.90
612;DHT22;293;53.888;11.464;2023-02-15T02:39:52;2.90;99.90
612;DHT22;293;53.888;11.464;2023-02-15T02:42:27;2.90;99.90
612;DHT22;293;53.888;11.464;2023-02-15T02:45:00;2.90;99.90
612;DHT22;293;53.888;11.464;2023-02-15T02:47:32;2.90;99.90
612;DHT22;293;53.888;11.464;2023-02-15T02:50:04;2.80;99.90
612;DHT22;293;53.888;11.464;2023-02-15T02:52:38;2.80;99.90
612;DHT22;293;53.888;11.464;2023-02-15T02:55:08;3.70;99.90
612;DHT22;293;53.888;11.464;2023-02-15T02:57:37;2.70;99.90
612;DHT22;293;53.888;11.464;2023-02-15T03:00:09;2.80;99.90
612;DHT22;293;53.888;11.464;2023-02-15T03:02:39;2.80;99.90
612;DHT22;293;53.888;11.464;2023-02-15T03:05:12;2.90;99.90
612;DHT22;293;53.888;11.464;2023-02-15T03:07:41;2.90;99.90
612;DHT22;293;53.888;11.464;2023-02-15T03:10:09;2.90;99.90
612;DHT22;293;53.888;11.464;2023-02-15T03:12:38;2.90;99.90
612;DHT22;293;53.888;11.464;2023-02-15T03:15:10;2.80;99.90
612;DHT22;293;53.888;11.464;2023-02-15T03:17:41;2.80;99.90
612;DHT22;293;53.888;11.464;2023-02-15T03:20:15;2.70;99.90
612;DHT22;293;53.888;11.464;2023-02-15T03:22:46;2.70;99.90
612;DHT22;293;53.888;11.464;2023-02-15T03:25:17;2.50;99.90
612;DHT22;293;53.888;11.464;2023-02-15T03:27:48;2.70;99.90
612;DHT22;293;53.888;11.464;2023-02-15T03:30:18;2.60;99.90
612;DHT22;293;53.888;11.464;2023-02-15T03:32:47;2.60;99.90
612;DHT22;293;53.888;11.464;2023-02-15T03:35:16;2.60;99.90
612;DHT22;293;53.888;11.464;2023-02-15T03:37:48;2.50;99.90
612;DHT22;293;53.888;11.464;2023-02-15T03:40:19;2.50;99.90
612;DHT22;293;53.888;11.464;2023-02-15T03:43:17;2.60;99.90
612;DHT22;293;53.888;11.464;2023-02-15T03:45:46;2.50;99.90
612;DHT22;293;53.888;11.464;2023-02-15T03:48:24;2.60;99.90
612;DHT22;293;53.888;11.464;2023-02-15T03:50:56;2.50;99.90
612;DHT22;293;53.888;11.464;2023-02-15T03:53:43;2.60;99.90
612;DHT22;293;53.888;11.464;2023-02-15T03:56:11;2.50;99.90
612;DHT22;293;53.888;11.464;2023-02-15T03:58:38;2.60;99.90
612;DHT22;293;53.888;11.464;2023-02-15T04:01:26;2.50;99.90
612;DHT22;293;53.888;11.464;2023-02-15T04:04:26;2.50;99.90
612;DHT22;293;53.888;11.464;2023-02-15T04:06:56;2.60;99.90
612;DHT22;293;53.888;11.464;2023-02-15T04:09:23;2.60;99.90
612;DHT22;293;53.888;11.464;2023-02-15T04:12:07;2.50;99.90
612;DHT22;293;53.888;11.464;2023-02-15T04:14:34;2.40;99.90
612;DHT22;293;53.888;11.464;2023-02-15T04:17:18;2.40;99.90
612;DHT22;293;53.888;11.464;2023-02-15T04:19:45;2.40;99.90
612;DHT22;293;53.888;11.464;2023-02-15T04:22:31;2.40;99.90
612;DHT22;293;53.888;11.464;2023-02-15T04:25:16;2.30;99.90
612;DHT22;293;53.888;11.464;2023-02-15T04:27:44;2.40;99.90
612;DHT22;293;53.888;11.464;2023-02-15T04:30:13;2.40;99.90
612;DHT22;293;53.888;11.464;2023-02-15T04:32:41;2.30;99.90
612;DHT22;293;53.888;11.464;2023-02-15T04:35:08;2.40;99.90
612;DHT22;293;53.888;11.464;2023-02-15T04:37:37;2.40;99.90
612;DHT22;293;53.888;11.464;2023-02-15T04:40:06;2.40;99.90
612;DHT22;293;53.888;11.464;2023-02-15T04:42:33;2.40;99.90
612;DHT22;293;53.888;11.464;2023-02-15T04:45:00;2.30;99.90
612;DHT22;293;53.888;11.464;2023-02-15T04:47:27;2.20;99.90
612;DHT22;293;53.888;11.464;2023-02-15T04:49:54;2.30;99.90
612;DHT22;293;53.888;11.464;2023-02-15T04:52:21;2.30;99.90
612;DHT22;293;53.888;11.464;2023-02-15T04:54:50;2.50;99.90
612;DHT22;293;53.888;11.464;2023-02-15T04:57:16;2.40;99.90
612;DHT22;293;53.888;11.464;2023-02-15T04:59:43;2.40;99.90
612;DHT22;293;53.888;11.464;2023-02-15T05:02:10;2.80;99.90
612;DHT22;293;53.888;11.464;2023-02-15T05:04:37;2.90;99.90
612;DHT22;293;53.888;11.464;2023-02-15T05:07:04;2.40;99.90
612;DHT22;293;53.888;11.464;2023-02-15T05:09:31;2.40;99.90
612;DHT22;293;53.888;11.464;2023-02-15T05:11:59;2.50;99.90
612;DHT22;293;53.888;11.464;2023-02-15T05:14:26;2.40;99.90
612;DHT22;293;53.888;11.464;2023-02-15T05:16:53;2.40;99.90
612;DHT22;293;53.888;11.464;2023-02-15T05:19:20;2.90;99.90
612;DHT22;293;53.888;11.464;2023-02-15T05:21:48;2.40;99.90
612;DHT22;293;53.888;11.464;2023-02-15T05:24:15;2.40;99.90
612;DHT22;293;53.888;11.464;2023-02-15T05:27:01;3.10;99.90
612;DHT22;293;53.888;11.464;2023-02-15T05:29:45;2.40;99.90
612;DHT22;293;53.888;11.464;2023-02-15T05:32:13;2.40;99.90
612;DHT22;293;53.888;11.464;2023-02-15T05:34:40;2.50;99.90
612;DHT22;293;53.888;11.464;2023-02-15T05:37:06;2.50;99.90
612;DHT22;293;53.888;11.464;2023-02-15T05:39:34;2.50;99.90
612;DHT22;293;53.888;11.464;2023-02-15T05:42:02;2.40;99.90
612;DHT22;293;53.888;11.464;2023-02-15T05:44:29;2.40;99.90
612;DHT22;293;53.888;11.464;2023-02-15T05:46:56;2.40;99.90
612;DHT22;293;53.888;11.464;2023-02-15T05:49:23;2.40;99.90
612;DHT22;293;53.888;11.464;2023-02-15T05:51:50;2.40;99.90
612;DHT22;293;53.888;11.464;2023-02-15T05:54:16;2.40;99.90
612;DHT22;293;53.888;11.464;2023-02-15T05:56:43;2.70;99.90
612;DHT22;293;53.888;11.464;2023-02-15T05:59:12;2.50;99.90
612;DHT22;293;53.888;11.464;2023-02-15T06:01:39;2.50;99.90
612;DHT22;293;53.888;11.464;2023-02-15T06:04:06;2.40;99.90
612;DHT22;293;53.888;11.464;2023-02-15T06:06:32;2.40;99.90
612;DHT22;293;53.888;11.464;2023-02-15T06:09:00;2.50;99.90
612;DHT22;293;53.888;11.464;2023-02-15T06:11:26;2.50;99.90
612;DHT22;293;53.888;11.464;2023-02-15T06:13:53;2.50;99.90
612;DHT22;293;53.888;11.464;2023-02-15T06:16:22;2.50;99.90
612;DHT22;293;53.888;11.464;2023-02-15T06:18:49;2.60;99.90
612;DHT22;293;53.888;11.464;2023-02-15T06:21:15;2.70;99.90
612;DHT22;293;53.888;11.464;2023-02-15T06:23:42;2.40;99.90
612;DHT22;293;53.888;11.464;2023-02-15T06:26:09;2.40;99.90
612;DHT22;293;53.888;11.464;2023-02-15T06:28:36;3.10;99.90
612;DHT22;293;53.888;11.464;2023-02-15T06:31:03;2.50;99.90
612;DHT22;293;53.888;11.464;2023-02-15T06:33:32;2.30;99.90
612;DHT22;293;53.888;11.464;2023-02-15T06:35:59;2.40;99.90
612;DHT22;293;53.888;11.464;2023-02-15T06:38:27;2.40;99.90
612;DHT22;293;53.888;11.464;2023-02-15T06:40:54;2.40;99.90
612;DHT22;293;53.888;11.464;2023-02-15T06:43:20;2.40;99.90
612;DHT22;293;53.888;11.464;2023-02-15T06:45:48;2.40;99.90
612;DHT22;293;53.888;11.464;2023-02-15T06:48:15;2.40;99.90
612;DHT22;293;53.888;11.464;2023-02-15T06:50:43;2.40;99.90
612;DHT22;293;53.888;11.464;2023-02-15T06:53:10;2.40;99.90
612;DHT22;293;53.888;11.464;2023-02-15T06:55:37;2.50;99.90
612;DHT22;293;53.888;11.464;2023-02-15T06:58:03;2.50;99.90
612;DHT22;293;53.888;11.464;2023-02-15T07:00:30;2.50;99.90
612;DHT22;293;53.888;11.464;2023-02-15T07:02:58;2.60;99.90
612;DHT22;293;53.888;11.464;2023-02-15T07:05:25;2.60;99.90
612;DHT22;293;53.888;11.464;2023-02-15T07:07:57;2.70;99.90
612;DHT22;293;53.888;11.464;2023-02-15T07:10:24;2.70;99.90
612;DHT22;293;53.888;11.464;2023-02-15T07:12:51;2.80;99.90
612;DHT22;293;53.888;11.464;2023-02-15T07:15:19;2.90;99.90
612;DHT22;293;53.888;11.464;2023-02-15T07:17:47;2.90;99.90
612;DHT22;293;53.888;11.464;2023-02-15T07:20:16;3.00;99.90
612;DHT22;293;53.888;11.464;2023-02-15T07:22:44;3.10;99.90
612;DHT22;293;53.888;11.464;2023-02-15T07:25:13;3.10;99.90
612;DHT22;293;53.888;11.464;2023-02-15T07:27:40;3.10;99.90
612;DHT22;293;53.888;11.464;2023-02-15T07:30:08;3.20;99.90
612;DHT22;293;53.888;11.464;2023-02-15T07:32:35;3.20;99.90
612;DHT22;293;53.888;11.464;2023-02-15T07:35:22;3.30;99.90
612;DHT22;293;53.888;11.464;2023-02-15T07:37:49;3.50;99.90
612;DHT22;293;53.888;11.464;2023-02-15T07:40:17;3.50;99.90
612;DHT22;293;53.888;11.464;2023-02-15T07:42:44;3.50;99.90
612;DHT22;293;53.888;11.464;2023-02-15T07:45:11;4.70;99.90
612;DHT22;293;53.888;11.464;2023-02-15T07:47:38;3.70;99.90
612;DHT22;293;53.888;11.464;2023-02-15T07:50:06;3.80;99.90
612;DHT22;293;53.888;11.464;2023-02-15T07:52:33;3.90;99.90
612;DHT22;293;53.888;11.464;2023-02-15T07:54:59;4.00;99.90
612;DHT22;293;53.888;11.464;2023-02-15T07:57:28;4.10;99.90
612;DHT22;293;53.888;11.464;2023-02-15T07:59:55;4.20;99.90
612;DHT22;293;53.888;11.464;2023-02-15T08:02:21;4.20;99.90
612;DHT22;293;53.888;11.464;2023-02-15T08:04:48;4.30;99.90
612;DHT22;293;53.888;11.464;2023-02-15T08:07:15;4.30;99.90
612;DHT22;293;53.888;11.464;2023-02-15T08:09:42;4.40;99.90
612;DHT22;293;53.888;11.464;2023-02-15T08:12:09;4.60;99.90
612;DHT22;293;53.888;11.464;2023-02-15T08:14:37;4.60;99.90
612;DHT22;293;53.888;11.464;2023-02-15T08:17:04;4.70;99.90
612;DHT22;293;53.888;11.464;2023-02-15T08:19:32;4.80;99.90
612;DHT22;293;53.888;11.464;2023-02-15T08:22:01;4.80;99.90
612;DHT22;293;53.888;11.464;2023-02-15T08:24:30;4.80;99.90
612;DHT22;293;53.888;11.464;2023-02-15T08:26:58;5.00;99.90
612;DHT22;293;53.888;11.464;2023-02-15T08:29:27;5.00;99.90
612;DHT22;293;53.888;11.464;2023-02-15T08:31:57;5.10;99.90
612;DHT22;293;53.888;11.464;2023-02-15T08:34:28;5.20;99.90
612;DHT22;293;53.888;11.464;2023-02-15T08:36:55;5.20;99.90
612;DHT22;293;53.888;11.464;2023-02-15T08:39:22;5.20;99.90
612;DHT22;293;53.888;11.464;2023-02-15T08:41:49;5.30;99.90
612;DHT22;293;53.888;11.464;2023-02-15T08:44:17;5.30;99.90
612;DHT22;293;53.888;11.464;2023-02-15T08:46:46;5.30;99.90
612;DHT22;293;53.888;11.464;2023-02-15T08:49:17;5.40;99.90
612;DHT22;293;53.888;11.464;2023-02-15T08:51:44;5.50;99.90
612;DHT22;293;53.888;11.464;2023-02-15T08:54:13;5.60;99.90
612;DHT22;293;53.888;11.464;2023-02-15T08:56:41;5.60;99.90
612;DHT22;293;53.888;11.464;2023-02-15T08:59:12;5.70;99.90
612;DHT22;293;53.888;11.464;2023-02-15T09:01:39;5.70;99.90
612;DHT22;293;53.888;11.464;2023-02-15T09:04:07;5.80;99.90
612;DHT22;293;53.888;11.464;2023-02-15T09:06:37;5.90;99.90
612;DHT22;293;53.888;11.464;2023-02-15T09:09:04;6.00;99.90
612;DHT22;293;53.888;11.464;2023-02-15T09:11:34;6.10;99.90
612;DHT22;293;53.888;11.464;2023-02-15T09:14:04;6.10;99.90
612;DHT22;293;53.888;11.464;2023-02-15T09:16:33;6.10;99.90
612;DHT22;293;53.888;11.464;2023-02-15T09:19:01;6.10;99.90
612;DHT22;293;53.888;11.464;2023-02-15T09:21:30;6.20;99.90
612;DHT22;293;53.888;11.464;2023-02-15T09:24:00;6.20;99.90
612;DHT22;293;53.888;11.464;2023-02-15T09:26:28;6.20;99.90
612;DHT22;293;53.888;11.464;2023-02-15T09:28:56;6.30;99.90
612;DHT22;293;53.888;11.464;2023-02-15T09:31:25;6.30;99.90
612;DHT22;293;53.888;11.464;2023-02-15T09:33:52;6.50;99.90
612;DHT22;293;53.888;11.464;2023-02-15T09:36:21;6.50;99.90
612;DHT22;293;53.888;11.464;2023-02-15T09:38:54;6.60;99.90
612;DHT22;293;53.888;11.464;2023-02-15T09:44:25;6.40;99.90
612;DHT22;293;53.888;11.464;2023-02-15T09:47:06;6.40;99.90
612;DHT22;293;53.888;11.464;2023-02-15T09:49:42;6.50;99.90
612;DHT22;293;53.888;11.464;2023-02-15T09:52:22;6.50;99.90
612;DHT22;293;53.888;11.464;2023-02-15T09:55:12;6.40;99.90
612;DHT22;293;53.888;11.464;2023-02-15T09:57:48;6.40;99.90
612;DHT22;293;53.888;11.464;2023-02-15T10:00:24;6.40;99.90
612;DHT22;293;53.888;11.464;2023-02-15T10:03:09;6.30;99.90
612;DHT22;293;53.888;11.464;2023-02-15T10:05:43;6.20;99.90
612;DHT22;293;53.888;11.464;2023-02-15T10:08:27;6.20;99.90
612;DHT22;293;53.888;11.464;2023-02-15T10:11:05;6.20;99.90
612;DHT22;293;53.888;11.464;2023-02-15T10:14:01;6.20;99.90
612;DHT22;293;53.888;11.464;2023-02-15T10:16:37;6.10;99.90
612;DHT22;293;53.888;11.464;2023-02-15T10:19:13;6.20;99.90
612;DHT22;293;53.888;11.464;2023-02-15T10:21:51;6.20;99.90
612;DHT22;293;53.888;11.464;2023-02-15T10:24:39;6.30;99.90
612;DHT22;293;53.888;11.464;2023-02-15T10:27:12;6.20;99.90
612;DHT22;293;53.888;11.464;2023-02-15T10:29:47;6.20;99.90
612;DHT22;293;53.888;11.464;2023-02-15T10:32:22;6.30;99.90
612;DHT22;293;53.888;11.464;2023-02-15T10:34:51;6.30;99.90
612;DHT22;293;53.888;11.464;2023-02-15T10:37:41;6.40;99.90
612;DHT22;293;53.888;11.464;2023-02-15T10:40:18;6.30;99.90
612;DHT22;293;53.888;11.464;2023-02-15T10:43:07;6.40;99.90
612;DHT22;293;53.888;11.464;2023-02-15T10:45:43;6.60;99.90
612;DHT22;293;53.888;11.464;2023-02-15T10:48:29;6.80;99.90
612;DHT22;293;53.888;11.464;2023-02-15T10:51:00;6.80;99.90
612;DHT22;293;53.888;11.464;2023-02-15T10:53:40;6.80;99.90
612;DHT22;293;53.888;11.464;2023-02-15T10:56:17;6.90;99.90
612;DHT22;293;53.888;11.464;2023-02-15T10:59:16;7.00;99.90
612;DHT22;293;53.888;11.464;2023-02-15T11:01:53;7.10;99.90
612;DHT22;293;53.888;11.464;2023-02-15T11:04:41;7.20;99.90
612;DHT22;293;53.888;11.464;2023-02-15T11:07:16;7.30;99.90
612;DHT22;293;53.888;11.464;2023-02-15T11:09:47;7.40;99.90
612;DHT22;293;53.888;11.464;2023-02-15T11:12:18;7.40;99.90
612;DHT22;293;53.888;11.464;2023-02-15T11:14:50;7.50;99.90
612;DHT22;293;53.888;11.464;2023-02-15T11:17:23;7.50;99.90
612;DHT22;293;53.888;11.464;2023-02-15T11:19:57;7.50;99.90
612;DHT22;293;53.888;11.464;2023-02-15T11:22:26;7.40;99.90
612;DHT22;293;53.888;11.464;2023-02-15T11:24:54;7.30;99.90
612;DHT22;293;53.888;11.464;2023-02-15T11:27:25;7.30;99.90
612;DHT22;293;53.888;11.464;2023-02-15T11:29:57;7.30;99.90
612;DHT22;293;53.888;11.464;2023-02-15T11:32:28;7.40;99.90
612;DHT22;293;53.888;11.464;2023-02-15T11:35:01;7.40;99.90
612;DHT22;293;53.888;11.464;2023-02-15T11:37:33;7.40;99.90
612;DHT22;293;53.888;11.464;2023-02-15T11:40:03;7.40;99.90
612;DHT22;293;53.888;11.464;2023-02-15T11:42:39;7.50;99.90
612;DHT22;293;53.888;11.464;2023-02-15T11:45:19;7.60;99.90
612;DHT22;293;53.888;11.464;2023-02-15T11:47:49;7.70;99.90
612;DHT22;293;53.888;11.464;2023-02-15T11:50:20;7.80;99.90
612;DHT22;293;53.888;11.464;2023-02-15T11:52:48;7.70;99.90
612;DHT22;293;53.888;11.464;2023-02-15T11:55:20;7.70;99.90
612;DHT22;293;53.888;11.464;2023-02-15T11:57:51;7.60;99.90
612;DHT22;293;53.888;11.464;2023-02-15T12:00:29;7.60;99.90
612;DHT22;293;53.888;11.464;2023-02-15T12:03:07;7.50;99.90
612;DHT22;293;53.888;11.464;2023-02-15T12:05:37;7.50;99.90
612;DHT22;293;53.888;11.464;2023-02-15T12:08:17;7.50;99.90
612;DHT22;293;53.888;11.464;2023-02-15T12:10:56;7.50;99.90
612;DHT22;293;53.888;11.464;2023-02-15T12:13:24;7.60;99.90
612;DHT22;293;53.888;11.464;2023-02-15T12:15:53;7.50;99.90
612;DHT22;293;53.888;11.464;2023-02-15T12:18:33;7.40;99.90
612;DHT22;293;53.888;11.464;2023-02-15T12:21:03;7.50;99.90
612;DHT22;293;53.888;11.464;2023-02-15T12:23:33;7.60;99.90
612;DHT22;293;53.888;11.464;2023-02-15T12:26:00;7.60;99.90
612;DHT22;293;53.888;11.464;2023-02-15T12:28:33;7.60;99.90
612;DHT22;293;53.888;11.464;2023-02-15T12:31:02;7.60;99.90
612;DHT22;293;53.888;11.464;2023-02-15T12:33:34;7.60;99.90
612;DHT22;293;53.888;11.464;2023-02-15T12:36:06;7.60;99.90
612;DHT22;293;53.888;11.464;2023-02-15T12:38:36;7.70;99.90
612;DHT22;293;53.888;11.464;2023-02-15T12:41:04;7.70;99.90
612;DHT22;293;53.888;11.464;2023-02-15T12:43:33;7.70;99.90
612;DHT22;293;53.888;11.464;2023-02-15T12:46:20;7.80;99.90
612;DHT22;293;53.888;11.464;2023-02-15T12:49:05;7.90;99.90
612;DHT22;293;53.888;11.464;2023-02-15T12:51:43;8.00;99.90
612;DHT22;293;53.888;11.464;2023-02-15T12:54:23;8.00;99.90
612;DHT22;293;53.888;11.464;2023-02-15T12:56:52;8.10;99.90
612;DHT22;293;53.888;11.464;2023-02-15T12:59:19;8.20;99.90
612;DHT22;293;53.888;11.464;2023-02-15T13:01:47;8.20;99.90
612;DHT22;293;53.888;11.464;2023-02-15T13:04:23;8.30;99.90
612;DHT22;293;53.888;11.464;2023-02-15T13:06:52;8.20;99.90
612;DHT22;293;53.888;11.464;2023-02-15T13:09:26;8.30;99.90
612;DHT22;293;53.888;11.464;2023-02-15T13:12:10;8.40;99.90
612;DHT22;293;53.888;11.464;2023-02-15T13:14:43;8.40;99.90
612;DHT22;293;53.888;11.464;2023-02-15T13:17:12;8.30;99.90
612;DHT22;293;53.888;11.464;2023-02-15T13:19:44;8.40;99.90
612;DHT22;293;53.888;11.464;2023-02-15T13:22:14;8.30;99.90
612;DHT22;293;53.888;11.464;2023-02-15T13:24:46;8.10;99.90
612;DHT22;293;53.888;11.464;2023-02-15T13:27:16;8.10;99.90
612;DHT22;293;53.888;11.464;2023-02-15T13:29:48;8.10;99.90
612;DHT22;293;53.888;11.464;2023-02-15T13:32:25;8.10;99.90
612;DHT22;293;53.888;11.464;2023-02-15T13:34:56;8.20;99.90
612;DHT22;293;53.888;11.464;2023-02-15T13:37:36;8.20;99.90
612;DHT22;293;53.888;11.464;2023-02-15T13:40:07;8.20;99.90
612;DHT22;293;53.888;11.464;2023-02-15T13:42:40;8.10;99.90
612;DHT22;293;53.888;11.464;2023-02-15T13:45:19;8.10;99.90
612;DHT22;293;53.888;11.464;2023-02-15T13:47:54;8.10;99.90
612;DHT22;293;53.888;11.464;2023-02-15T13:50:50;8.10;99.90
612;DHT22;293;53.888;11.464;2023-02-15T13:53:45;8.10;99.90
612;DHT22;293;53.888;11.464;2023-02-15T13:56:21;8.10;99.90
612;DHT22;293;53.888;11.464;2023-02-15T13:59:14;8.10;99.90
612;DHT22;293;53.888;11.464;2023-02-15T14:01:47;8.00;99.90
612;DHT22;293;53.888;11.464;2023-02-15T14:04:39;8.00;99.90
612;DHT22;293;53.888;11.464;2023-02-15T14:07:30;8.00;99.90
612;DHT22;293;53.888;11.464;2023-02-15T14:10:12;8.00;99.90
612;DHT22;293;53.888;11.464;2023-02-15T14:12:58;8.00;99.90
612;DHT22;293;53.888;11.464;2023-02-15T14:15:36;7.90;99.90
612;DHT22;293;53.888;11.464;2023-02-15T14:18:12;8.00;99.90
612;DHT22;293;53.888;11.464;2023-02-15T14:20:49;7.90;99.90
612;DHT22;293;53.888;11.464;2023-02-15T14:23:30;7.90;99.90
612;DHT22;293;53.888;11.464;2023-02-15T14:26:05;7.90;99.90
612;DHT22;293;53.888;11.464;2023-02-15T14:28:39;7.90;99.90
612;DHT22;293;53.888;11.464;2023-02-15T14:31:11;7.90;99.90
612;DHT22;293;53.888;11.464;2023-02-15T14:33:40;7.90;99.90
612;DHT22;293;53.888;11.464;2023-02-15T14:36:12;7.90;99.90
612;DHT22;293;53.888;11.464;2023-02-15T14:38:51;7.90;99.90
612;DHT22;293;53.888;11.464;2023-02-15T14:41:24;7.80;99.90
612;DHT22;293;53.888;11.464;2023-02-15T14:44:00;7.70;99.90
612;DHT22;293;53.888;11.464;2023-02-15T14:46:31;7.70;99.90
612;DHT22;293;53.888;11.464;2023-02-15T14:49:06;7.70;99.90
612;DHT22;293;53.888;11.464;2023-02-15T14:52:01;7.80;99.90
612;DHT22;293;53.888;11.464;2023-02-15T14:54:59;7.80;99.90
612;DHT22;293;53.888;11.464;2023-02-15T14:57:27;7.80;99.90
612;DHT22;293;53.888;11.464;2023-02-15T14:59:58;7.90;99.90
612;DHT22;293;53.888;11.464;2023-02-15T15:02:40;7.80;99.90
612;DHT22;293;53.888;11.464;2023-02-15T15:05:10;7.80;99.90
612;DHT22;293;53.888;11.464;2023-02-15T15:07:43;7.70;99.90
612;DHT22;293;53.888;11.464;2023-02-15T15:10:40;7.70;99.90
612;DHT22;293;53.888;11.464;2023-02-15T15:13:38;7.70;99.90
612;DHT22;293;53.888;11.464;2023-02-15T15:16:30;7.70;99.90
612;DHT22;293;53.888;11.464;2023-02-15T15:18:59;7.50;99.90
612;DHT22;293;53.888;11.464;2023-02-15T15:21:51;7.50;99.90
612;DHT22;293;53.888;11.464;2023-02-15T15:24:46;7.30;99.90
612;DHT22;293;53.888;11.464;2023-02-15T15:42:54;7.00;99.90
612;DHT22;293;53.888;11.464;2023-02-15T15:45:41;7.00;99.90
612;DHT22;293;53.888;11.464;2023-02-15T15:48:28;6.90;99.90
612;DHT22;293;53.888;11.464;2023-02-15T15:50:58;6.90;99.90
612;DHT22;293;53.888;11.464;2023-02-15T15:53:28;6.90;99.90
612;DHT22;293;53.888;11.464;2023-02-15T15:56:01;6.60;99.90
612;DHT22;293;53.888;11.464;2023-02-15T15:58:30;6.60;99.90
612;DHT22;293;53.888;11.464;2023-02-15T16:01:00;6.60;99.90
612;DHT22;293;53.888;11.464;2023-02-15T16:03:30;6.60;99.90
612;DHT22;293;53.888;11.464;2023-02-15T16:05:57;6.50;99.90
612;DHT22;293;53.888;11.464;2023-02-15T16:08:31;6.50;99.90
612;DHT22;293;53.888;11.464;2023-02-15T16:11:01;6.40;99.90
612;DHT22;293;53.888;11.464;2023-02-15T16:13:34;6.40;99.90
612;DHT22;293;53.888;11.464;2023-02-15T16:16:01;6.40;99.90
612;DHT22;293;53.888;11.464;2023-02-15T16:18:28;6.30;99.90
612;DHT22;293;53.888;11.464;2023-02-15T16:20:57;6.30;99.90
612;DHT22;293;53.888;11.464;2023-02-15T16:23:46;6.30;99.90
612;DHT22;293;53.888;11.464;2023-02-15T16:26:30;6.20;99.90
612;DHT22;293;53.888;11.464;2023-02-15T16:29:00;6.20;99.90
612;DHT22;293;53.888;11.464;2023-02-15T16:31:27;6.10;99.90
612;DHT22;293;53.888;11.464;2023-02-15T16:33:54;6.20;99.90
612;DHT22;293;53.888;11.464;2023-02-15T16:36:23;6.20;99.90
612;DHT22;293;53.888;11.464;2023-02-15T16:39:17;6.20;99.90
612;DHT22;293;53.888;11.464;2023-02-15T16:41:47;6.10;99.90
612;DHT22;293;53.888;11.464;2023-02-15T16:44:17;6.10;99.90
612;DHT22;293;53.888;11.464;2023-02-15T16:46:47;6.20;99.90
612;DHT22;293;53.888;11.464;2023-02-15T16:49:17;6.10;99.90
612;DHT22;293;53.888;11.464;2023-02-15T16:51:53;6.10;99.90
612;DHT22;293;53.888;11.464;2023-02-15T16:54:23;6.00;99.90
612;DHT22;293;53.888;11.464;2023-02-15T16:56:52;6.10;99.90
612;DHT22;293;53.888;11.464;2023-02-15T16:59:30;6.10;99.90
612;DHT22;293;53.888;11.464;2023-02-15T17:01:57;6.10;99.90
612;DHT22;293;53.888;11.464;2023-02-15T17:04:29;6.10;99.90
612;DHT22;293;53.888;11.464;2023-02-15T17:07:04;6.10;99.90
612;DHT22;293;53.888;11.464;2023-02-15T17:09:32;6.00;99.90
612;DHT22;293;53.888;11.464;2023-02-15T17:12:00;5.90;99.90
612;DHT22;293;53.888;11.464;2023-02-15T17:14:29;5.90;99.90
612;DHT22;293;53.888;11.464;2023-02-15T17:17:01;5.90;99.90
612;DHT22;293;53.888;11.464;2023-02-15T17:19:31;5.80;99.90
612;DHT22;293;53.888;11.464;2023-02-15T17:22:00;5.70;99.90
612;DHT22;293;53.888;11.464;2023-02-15T17:24:35;5.70;99.90
612;DHT22;293;53.888;11.464;2023-02-15T17:27:11;5.70;99.90
612;DHT22;293;53.888;11.464;2023-02-15T17:29:40;5.60;99.90
612;DHT22;293;53.888;11.464;2023-02-15T17:32:16;5.70;99.90